Address 0x5bd91909fdd1dd7791841d69ccc3fbe446642c2b 1

Txn Hash Method
Block
From
To
Value [Txn Fee]
0x50b7a839f6695e1932a6cf3c89162fc188025deee88e0291baf2d13f65ac42a5Buy With Token125237662021-09-20 7:31:285 days 4 hrs ago0x5bd91909fdd1dd7791841d69ccc3fbe446642c2bOUT 0xb0fec4c60f120614a16c0e7d0ce888ad2a637afc0 BNB0.00106176
0xf33e78d19bcb4dc3d394802041f283aabb0c3d90ceaa4a3eef13112f1e4b3eafBuy With Token125237582021-09-20 7:31:045 days 4 hrs ago0x5bd91909fdd1dd7791841d69ccc3fbe446642c2bOUT 0xb0fec4c60f120614a16c0e7d0ce888ad2a637afc0 BNB0.00107023
0x1572fc892bd66d5251f93df3d6e03f2427541b89e7bec842ec9c8e678c4b6df0Buy With Token125236932021-09-20 7:27:495 days 4 hrs ago0x5bd91909fdd1dd7791841d69ccc3fbe446642c2bOUT 0xb0fec4c60f120614a16c0e7d0ce888ad2a637afc0 BNB0.00107023
0x0eccd7719ed538cd74d1944eaf9ea73da03182eebd875ea5b1587565c2c8300aBuy With Token125236322021-09-20 7:24:465 days 4 hrs ago0x5bd91909fdd1dd7791841d69ccc3fbe446642c2bOUT 0xb0fec4c60f120614a16c0e7d0ce888ad2a637afc0 BNB0.00107035
0xbd9fbd9f9f55fd2705522ec6c3033905121a40da3a2154c22cd2c16b4d468fe8Approve125236192021-09-20 7:24:075 days 4 hrs ago0x5bd91909fdd1dd7791841d69ccc3fbe446642c2bOUT 0x564ad0e536f5478375872a46f0b5b96a810f772c0 BNB0.00045161
0x55336618e5dd70571a93e11ad5def6b6eb6fb14a2f7a9d130db94f8d8f7da3abBuy125235832021-09-20 7:22:195 days 4 hrs ago0x5bd91909fdd1dd7791841d69ccc3fbe446642c2bOUT 0xb0fec4c60f120614a16c0e7d0ce888ad2a637afc0.0001 BNB0.0009208
0x9a548e594165ddd56c18ec09de17ded2c544909c2d10c27ea3bcc8c5d6a9baf9Transfer124081432021-09-16 5:41:339 days 6 hrs ago0x5bd91909fdd1dd7791841d69ccc3fbe446642c2bOUT 0x564ad0e536f5478375872a46f0b5b96a810f772c0 BNB0.00052852
0x1827b40ef3c7ac0401c935e243a480dfff8f5afb4c19c53e396a83642f9e3b02Transfer124081082021-09-16 5:39:489 days 6 hrs ago0xaa25aa7a19f9c426e07dee59b12f944f4d9f1dd3 IN 0x5bd91909fdd1dd7791841d69ccc3fbe446642c2b1 BNB0.000378
0x4d8c986f797f8592394f06922c11c36006c9bade6460a9c737b40de1fe6b0bcbTransfer123620652021-09-14 14:59:5810 days 21 hrs ago0xaa25aa7a19f9c426e07dee59b12f944f4d9f1dd3 IN 0x5bd91909fdd1dd7791841d69ccc3fbe446642c2b1 BNB0.000378
0x824f0b55ceb6a6320f5e08b9b6963dc84316bfab5a612cd89146fd2a814dc45cTransfer123238162021-09-13 6:53:2012 days 5 hrs ago0xaa25aa7a19f9c426e07dee59b12f944f4d9f1dd3 IN 0x5bd91909fdd1dd7791841d69ccc3fbe446642c2b1 BNB0.000378
0xcca00accfdacbb8758443972d7f9a20054bd26bd51d877dcd270226588fa5b9bTransfer122455502021-09-10 13:08:4914 days 23 hrs ago0xaa25aa7a19f9c426e07dee59b12f944f4d9f1dd3 IN 0x5bd91909fdd1dd7791841d69ccc3fbe446642c2b1 BNB0.000378
0xf2b1efdb04970c0241a387db051080d0113b4b53a02c59383e6c9077d9cffac3Swap Exact ETH F...85456292021-05-04 11:23:53144 days 56 mins ago0x5bd91909fdd1dd7791841d69ccc3fbe446642c2bOUT 0xd99d1c33f9fc3444f8101754abc46c52416550d10.01 BNB0.00032725
0xe1654ade71e7e88fa7fb2e6af5cf2e4ca5ec3ee23ade83b5cd40639f6383d6f3Swap Exact ETH F...85455822021-05-04 11:21:32144 days 58 mins ago0x5bd91909fdd1dd7791841d69ccc3fbe446642c2bOUT 0xd99d1c33f9fc3444f8101754abc46c52416550d10.01 BNB0.00126439
0x4e4dba37c89c1242308a99184832d702eda851f4bc98b575fd9f0f5036074119Swap Exact ETH F...85454732021-05-04 11:16:05144 days 1 hr ago0x5bd91909fdd1dd7791841d69ccc3fbe446642c2bOUT 0xd99d1c33f9fc3444f8101754abc46c52416550d10.01 BNB0.00023426
0x1e8cdce04a766aa783e747afc36c23f18c83691a41a0400858697904c554910cAdd Liquidity ET...85434032021-05-04 9:32:35144 days 2 hrs ago0x5bd91909fdd1dd7791841d69ccc3fbe446642c2bOUT 0xd99d1c33f9fc3444f8101754abc46c52416550d11 BNB0.02189306
0xf6a5f2605f83ae4839b8d75d59cb48740ece81885ea556783998d2b1efa019beApprove85433652021-05-04 9:30:41144 days 2 hrs ago0x5bd91909fdd1dd7791841d69ccc3fbe446642c2bOUT 0x00d880c7ead5e4d905511f4b9be1e640223921990 BNB0.00044509
0x4244d8fffc54d7bb9741c51b148fe820b9df33bcc9bf58a71af7e6b7bfc47154Add Liquidity ET...85430062021-05-04 9:12:44144 days 3 hrs ago0x5bd91909fdd1dd7791841d69ccc3fbe446642c2bOUT 0xd99d1c33f9fc3444f8101754abc46c52416550d11 BNB0.00031942
0x1c0ecee6db4520e39afc9c776b1f1fa16a4ae31e3c8b5b69d776dee0a08a8c9fAdd Liquidity ET...85427842021-05-04 9:01:38144 days 3 hrs ago0x5bd91909fdd1dd7791841d69ccc3fbe446642c2bOUT 0xd99d1c33f9fc3444f8101754abc46c52416550d10.001 BNB0.00161837
0x2944e98a1d8e8155b7ccd07e257a8c97ae88f390dadc8fb8786a98c97d042d5cAdd Liquidity ET...85427022021-05-04 8:57:32144 days 3 hrs ago0x5bd91909fdd1dd7791841d69ccc3fbe446642c2bOUT 0xd99d1c33f9fc3444f8101754abc46c52416550d10.001 BNB0.00031942
0xae083d84e36825c3a7a7242bf419eb6b9ac5e45070a32df7ba7bf3c81158722bRemove Liquidity...85426352021-05-04 8:54:11144 days 3 hrs ago0x5bd91909fdd1dd7791841d69ccc3fbe446642c2bOUT 0xd99d1c33f9fc3444f8101754abc46c52416550d10 BNB0.00153852
0x3b4aa2b486390649fa0c8e16692eebc6348eade326246a66e29a2a2e7935365aApprove85425732021-05-04 8:51:05144 days 3 hrs ago0x5bd91909fdd1dd7791841d69ccc3fbe446642c2bOUT 0x688fbad1af0f8e6793df9e8923be96cc18ca65da0 BNB0.00044331
0x42b3560b3af44212bc4032b7291023c1271c9d7cb6e6cbc439bf3775ea90d47eAdd Liquidity ET...85422692021-05-04 8:35:53144 days 3 hrs ago0x5bd91909fdd1dd7791841d69ccc3fbe446642c2bOUT 0xd99d1c33f9fc3444f8101754abc46c52416550d10.001 BNB0.00031378
0xd468ad5fad2c83313d0911642b01caf40a448e97e6869ef98f49c36ffcca8acfAdd Liquidity ET...85421882021-05-04 8:31:50144 days 3 hrs ago0x5bd91909fdd1dd7791841d69ccc3fbe446642c2bOUT 0xd99d1c33f9fc3444f8101754abc46c52416550d10.001 BNB0.00182037
0x4006b6c368522b9c57ce28dd9fca023c1ef4e08b35c9189b26d4efb5cfb65f40Add Liquidity ET...85421532021-05-04 8:30:05144 days 3 hrs ago0x5bd91909fdd1dd7791841d69ccc3fbe446642c2bOUT 0xd99d1c33f9fc3444f8101754abc46c52416550d10.1 BNB0.00031474
0x0736fdcc3b7edd6c969fbda523f7979e7c66c13bd17d1c28df29b104fd34b68bAdd Liquidity ET...85421162021-05-04 8:28:14144 days 3 hrs ago0x5bd91909fdd1dd7791841d69ccc3fbe446642c2bOUT 0xd99d1c33f9fc3444f8101754abc46c52416550d10.01 BNB0.00031378
[ Download CSV Export 
Latest 1 internal transaction
Parent Txn Hash Block From To Value
0xae083d84e36825c3a7a7242bf419eb6b9ac5e45070a32df7ba7bf3c81158722b85426352021-05-04 8:54:11144 days 3 hrs ago 0xd99d1c33f9fc3444f8101754abc46c52416550d10x5bd91909fdd1dd7791841d69ccc3fbe446642c2b1.000999999 BNB
[ Download CSV Export 
Loading

Contract Name:
0 BNB

Compiler Version
0

Optimization Enabled:
0 BNB

Other Settings:
-NA-
Block Transaction Gas Used Reward
Age Block Fee Address BC Fee Address Voting Power Jailed Incoming
Block Uncle Number Difficulty Gas Used Reward
Loading